createdAt,value
2022-10-03T00:01:25.552Z,11.61
2022-10-03T00:04:54.662Z,11.73
2022-10-03T00:08:07.480Z,11.69
2022-10-03T00:11:22.966Z,11.67
2022-10-03T00:14:35.824Z,11.50
2022-10-03T00:17:47.463Z,11.52
2022-10-03T00:21:04.005Z,11.54
2022-10-03T00:24:17.632Z,11.71
2022-10-03T00:27:31.606Z,11.73
2022-10-03T00:30:59.005Z,11.88
2022-10-03T00:34:13.057Z,11.81
2022-10-03T00:37:28.491Z,11.86
2022-10-03T00:40:41.022Z,11.91
2022-10-03T00:44:25.115Z,11.87
2022-10-03T00:47:57.094Z,11.70
2022-10-03T00:51:24.016Z,11.61
2022-10-03T00:54:44.422Z,11.58
2022-10-03T00:58:07.354Z,11.53
2022-10-03T01:01:24.673Z,11.74
2022-10-03T01:04:45.085Z,11.56
2022-10-03T01:08:08.383Z,11.56
2022-10-03T01:11:24.997Z,11.63
2022-10-03T01:14:49.222Z,11.70
2022-10-03T01:18:07.987Z,11.77
2022-10-03T01:21:19.695Z,11.90
2022-10-03T01:24:51.641Z,11.98
2022-10-03T01:28:20.841Z,12.10
2022-10-03T01:31:32.056Z,12.03
2022-10-03T01:34:43.509Z,11.99
2022-10-03T01:37:55.591Z,11.90
2022-10-03T01:41:03.195Z,12.00
2022-10-03T01:44:14.564Z,12.02
2022-10-03T01:47:27.367Z,12.09
2022-10-03T01:50:36.434Z,11.98
2022-10-03T01:54:00.035Z,12.05
2022-10-03T01:57:12.321Z,12.03
2022-10-03T02:00:18.895Z,11.98
2022-10-03T02:03:29.489Z,12.09
2022-10-03T02:06:43.374Z,12.18
2022-10-03T02:09:58.766Z,12.24
2022-10-03T02:13:09.488Z,12.17
2022-10-03T02:16:18.851Z,12.27
2022-10-03T02:19:27.342Z,12.31
2022-10-03T02:22:34.167Z,12.29
2022-10-03T02:25:55.243Z,12.45
2022-10-03T02:29:23.619Z,12.40
2022-10-03T02:32:54.653Z,12.46
2022-10-03T02:36:26.440Z,12.43
2022-10-03T02:40:17.467Z,12.34
2022-10-03T02:43:43.488Z,12.26
2022-10-03T02:47:09.635Z,12.35
2022-10-03T02:50:42.453Z,12.20
2022-10-03T02:54:08.979Z,12.25
2022-10-03T02:57:32.851Z,12.24
2022-10-03T03:01:16.151Z,12.16
2022-10-03T03:04:45.525Z,12.27
2022-10-03T03:08:15.059Z,12.33
2022-10-03T03:11:56.442Z,12.25
2022-10-03T03:15:47.528Z,12.28
2022-10-03T03:19:04.776Z,12.33
2022-10-03T03:22:21.509Z,12.16
2022-10-03T03:26:08.980Z,12.16
2022-10-03T03:29:22.575Z,12.21
2022-10-03T03:32:38.007Z,12.11
2022-10-03T03:35:55.370Z,12.25
2022-10-03T03:39:09.690Z,12.32
2022-10-03T03:42:43.208Z,12.31
2022-10-03T03:46:00.658Z,12.36
2022-10-03T03:49:24.024Z,12.52
2022-10-03T03:52:45.255Z,12.50
2022-10-03T03:56:17.516Z,12.16
2022-10-03T03:59:34.430Z,12.31
2022-10-03T04:02:53.841Z,12.23
2022-10-03T04:06:12.703Z,12.47
2022-10-03T04:09:32.140Z,12.37
2022-10-03T04:13:18.555Z,12.42
2022-10-03T04:17:02.631Z,12.49
2022-10-03T04:20:20.054Z,12.31
2022-10-03T04:23:36.663Z,12.37
2022-10-03T04:26:59.686Z,12.32
2022-10-03T04:30:10.003Z,12.29
2022-10-03T04:33:26.229Z,12.35
2022-10-03T04:36:57.138Z,12.32
2022-10-03T04:40:18.812Z,12.40
2022-10-03T04:43:34.879Z,12.31
2022-10-03T04:46:44.453Z,12.27
2022-10-03T04:49:53.717Z,12.30
2022-10-03T04:53:16.515Z,12.33
2022-10-03T04:56:34.848Z,12.35
2022-10-03T04:59:47.446Z,12.39
2022-10-03T05:03:00.433Z,12.31
2022-10-03T05:06:11.357Z,12.25
2022-10-03T05:09:24.732Z,12.37
2022-10-03T05:12:44.569Z,12.45
2022-10-03T05:15:56.295Z,12.40
2022-10-03T05:19:16.488Z,12.31
2022-10-03T05:22:28.910Z,12.24
2022-10-03T05:25:45.681Z,12.33
2022-10-03T05:28:56.904Z,12.33
2022-10-03T05:32:15.966Z,12.34
2022-10-03T05:35:35.003Z,12.37
2022-10-03T05:39:01.187Z,12.43
2022-10-03T05:42:40.472Z,12.33
2022-10-03T05:45:50.426Z,12.30
2022-10-03T05:49:03.928Z,12.26
2022-10-03T05:52:23.867Z,12.34
2022-10-03T05:55:52.417Z,12.36
2022-10-03T05:59:28.260Z,12.32
2022-10-03T06:02:53.005Z,12.43
2022-10-03T06:06:20.636Z,12.44
2022-10-03T06:09:44.060Z,12.42
2022-10-03T06:13:05.268Z,12.35
2022-10-03T06:16:24.955Z,12.54
2022-10-03T06:19:41.703Z,12.55
2022-10-03T06:23:09.095Z,12.37
2022-10-03T06:26:41.556Z,12.54
2022-10-03T06:30:05.486Z,12.58
2022-10-03T06:33:52.529Z,12.68
2022-10-03T06:37:20.681Z,12.69
2022-10-03T06:41:08.423Z,12.74
2022-10-03T06:44:29.731Z,12.77
2022-10-03T06:47:51.458Z,12.80
2022-10-03T06:51:18.670Z,12.78
2022-10-03T06:54:53.931Z,13.14
2022-10-03T06:58:30.178Z,13.99
2022-10-03T07:02:24.998Z,14.36
2022-10-03T07:05:55.001Z,14.03
2022-10-03T07:09:30.206Z,13.71
2022-10-03T07:12:59.516Z,13.68
2022-10-03T07:16:41.477Z,13.64
2022-10-03T07:20:17.415Z,13.30
2022-10-03T07:23:35.519Z,13.42
2022-10-03T07:27:10.786Z,13.62
2022-10-03T07:30:18.501Z,13.71
2022-10-03T07:33:48.385Z,14.20
2022-10-03T07:37:28.651Z,14.49
2022-10-03T07:41:12.884Z,14.65
2022-10-03T07:44:46.121Z,14.59
2022-10-03T07:48:17.305Z,14.52
2022-10-03T07:51:30.478Z,14.36
2022-10-03T07:55:02.918Z,14.13
2022-10-03T07:58:24.339Z,14.31
2022-10-03T08:01:59.916Z,14.37
2022-10-03T08:05:20.292Z,14.28
2022-10-03T08:09:08.667Z,14.53
2022-10-03T08:12:33.503Z,15.16
2022-10-03T08:15:57.127Z,15.09
2022-10-03T08:19:23.713Z,15.00
2022-10-03T08:22:45.580Z,15.01
2022-10-03T08:26:01.625Z,14.93
2022-10-03T08:29:30.477Z,15.11
2022-10-03T08:32:50.027Z,15.21
2022-10-03T08:36:30.035Z,15.24
2022-10-03T08:39:54.159Z,15.04
2022-10-03T08:43:44.185Z,15.35
2022-10-03T08:47:07.322Z,15.53
2022-10-03T08:50:24.558Z,15.60
2022-10-03T08:53:56.542Z,15.45
2022-10-03T08:57:19.055Z,15.75
2022-10-03T09:00:23.460Z,15.50
2022-10-03T09:04:05.141Z,15.44
2022-10-03T09:07:35.941Z,15.53
2022-10-03T09:11:04.864Z,15.63
2022-10-03T09:14:41.444Z,15.67
2022-10-03T09:18:29.916Z,15.86
2022-10-03T09:21:59.101Z,15.80
2022-10-03T09:25:19.744Z,15.87
2022-10-03T09:28:48.001Z,16.10
2022-10-03T09:32:29.074Z,16.14
2022-10-03T09:35:54.835Z,16.43
2022-10-03T09:39:09.678Z,16.37
2022-10-03T09:42:36.526Z,16.64
2022-10-03T09:46:15.607Z,16.55
2022-10-03T09:49:47.260Z,16.41
2022-10-03T09:53:15.693Z,16.25
2022-10-03T09:56:50.093Z,15.95
2022-10-03T10:00:03.712Z,16.03
2022-10-03T10:03:41.195Z,16.18
2022-10-03T10:07:12.507Z,16.18
2022-10-03T10:10:49.750Z,17.05
2022-10-03T10:14:16.263Z,17.44
2022-10-03T10:17:57.462Z,17.73
2022-10-03T10:21:43.446Z,17.90
2022-10-03T10:25:09.289Z,18.30
2022-10-03T10:28:48.409Z,18.94
2022-10-03T10:32:34.549Z,19.73
2022-10-03T10:36:11.749Z,19.76
2022-10-03T10:39:49.845Z,19.48
2022-10-03T10:43:24.982Z,18.58
2022-10-03T10:46:55.812Z,18.35
2022-10-03T10:50:29.622Z,18.16
2022-10-03T10:54:17.827Z,17.87
2022-10-03T10:57:40.459Z,18.03
2022-10-03T11:01:27.946Z,17.43
2022-10-03T11:05:07.314Z,17.62
2022-10-03T11:08:51.700Z,17.44
2022-10-03T11:12:34.852Z,17.27
2022-10-03T11:16:12.826Z,16.93
2022-10-03T11:19:54.178Z,17.07
2022-10-03T11:23:34.192Z,17.26
2022-10-03T11:27:38.346Z,17.25
2022-10-03T11:31:38.237Z,16.87
2022-10-03T11:35:13.131Z,16.72
2022-10-03T11:38:22.386Z,17.02
2022-10-03T11:41:40.304Z,17.11
2022-10-03T11:44:47.596Z,17.07
2022-10-03T11:48:02.709Z,17.13
2022-10-03T11:51:15.532Z,17.12
2022-10-03T11:54:31.500Z,17.03
2022-10-03T11:57:37.922Z,17.02
2022-10-03T12:00:44.762Z,17.10
2022-10-03T12:03:55.162Z,16.95
2022-10-03T12:07:30.298Z,17.21
2022-10-03T12:10:47.871Z,17.55
2022-10-03T12:14:15.005Z,17.55
2022-10-03T12:17:26.821Z,17.21
2022-10-03T12:20:41.064Z,16.98
2022-10-03T12:24:03.541Z,17.40
2022-10-03T12:27:17.091Z,18.15
2022-10-03T12:30:21.463Z,18.18
2022-10-03T12:33:42.752Z,18.46
2022-10-03T12:36:53.234Z,17.96
2022-10-03T12:40:06.011Z,17.98
2022-10-03T12:43:27.278Z,17.94
2022-10-03T12:46:40.196Z,17.51
2022-10-03T12:49:53.950Z,17.43
2022-10-03T12:53:18.494Z,17.57
2022-10-03T12:56:33.410Z,17.58
2022-10-03T12:59:42.293Z,17.94
2022-10-03T13:02:55.751Z,18.10
2022-10-03T13:06:44.573Z,18.15
2022-10-03T13:10:00.711Z,18.05
2022-10-03T13:13:21.129Z,18.10
2022-10-03T13:16:29.989Z,17.89
2022-10-03T13:19:44.621Z,17.66
2022-10-03T13:22:55.266Z,17.60
2022-10-03T13:26:12.689Z,17.45
2022-10-03T13:29:26.397Z,17.68
2022-10-03T13:32:36.106Z,17.94
2022-10-03T13:35:59.787Z,18.22
2022-10-03T13:39:16.251Z,18.49
2022-10-03T13:42:29.358Z,18.22
2022-10-03T13:45:34.542Z,17.61
2022-10-03T13:48:38.061Z,17.80
2022-10-03T13:51:52.782Z,17.29
2022-10-03T13:55:17.921Z,17.07
2022-10-03T13:58:32.684Z,16.98
2022-10-03T14:01:47.096Z,16.90
2022-10-03T14:05:08.440Z,16.96
2022-10-03T14:08:20.532Z,16.96
2022-10-03T14:11:34.825Z,16.76
2022-10-03T14:14:56.845Z,16.98
2022-10-03T14:18:13.108Z,17.10
2022-10-03T14:21:41.745Z,17.31
2022-10-03T14:24:59.069Z,17.34
2022-10-03T14:28:09.290Z,17.26
2022-10-03T14:31:20.944Z,17.26
2022-10-03T14:34:37.086Z,17.19
2022-10-03T14:37:43.747Z,17.18
2022-10-03T14:40:50.302Z,17.14
2022-10-03T14:43:55.898Z,17.17
2022-10-03T14:47:01.289Z,16.94
2022-10-03T14:50:06.820Z,16.80
2022-10-03T14:53:18.866Z,16.84
2022-10-03T14:56:24.358Z,16.87
2022-10-03T14:59:32.703Z,16.64
2022-10-03T15:02:37.730Z,16.64
2022-10-03T15:05:55.930Z,16.75
2022-10-03T15:09:02.421Z,16.68
2022-10-03T15:12:09.630Z,16.82
2022-10-03T15:15:17.838Z,16.64
2022-10-03T15:18:24.285Z,16.62
2022-10-03T15:21:29.552Z,16.62
2022-10-03T15:24:35.194Z,16.60
2022-10-03T15:27:41.820Z,16.56
2022-10-03T15:30:46.550Z,16.49
2022-10-03T15:33:54.292Z,16.39
2022-10-03T15:37:01.453Z,16.35
2022-10-03T15:40:21.943Z,16.25
2022-10-03T15:43:34.552Z,16.25
2022-10-03T15:46:44.211Z,16.28
2022-10-03T15:49:54.465Z,16.21
2022-10-03T15:53:24.216Z,16.18
2022-10-03T15:56:29.726Z,16.09
2022-10-03T15:59:35.341Z,16.02
2022-10-03T16:02:43.141Z,15.97
2022-10-03T16:06:03.779Z,16.08
2022-10-03T16:09:17.395Z,15.96
2022-10-03T16:12:48.014Z,15.95
2022-10-03T16:16:07.296Z,15.83
2022-10-03T16:19:32.626Z,15.80
2022-10-03T16:22:43.528Z,15.73
2022-10-03T16:25:51.164Z,15.64
2022-10-03T16:29:03.227Z,15.58
2022-10-03T16:32:09.342Z,15.53
2022-10-03T16:35:22.745Z,15.59
2022-10-03T16:38:27.923Z,15.39
2022-10-03T16:41:34.627Z,15.48
2022-10-03T16:44:41.677Z,15.22
2022-10-03T16:47:45.110Z,15.33
2022-10-03T16:50:52.116Z,15.29
2022-10-03T16:53:56.945Z,15.22
2022-10-03T16:57:04.153Z,15.15
2022-10-03T17:00:16.765Z,15.20
2022-10-03T17:03:22.587Z,15.05
2022-10-03T17:06:30.962Z,15.09
2022-10-03T17:09:39.773Z,15.14
2022-10-03T17:12:46.846Z,14.98
2022-10-03T17:15:54.024Z,15.02
2022-10-03T17:19:09.530Z,14.93
2022-10-03T17:22:16.930Z,14.97
2022-10-03T17:25:39.033Z,14.93
2022-10-03T17:28:47.068Z,14.93
2022-10-03T17:31:55.440Z,14.91
2022-10-03T17:35:04.373Z,14.71
2022-10-03T17:38:47.741Z,14.76
2022-10-03T17:41:51.157Z,14.73
2022-10-03T17:45:00.662Z,14.69
2022-10-03T17:48:12.959Z,14.75
2022-10-03T17:51:32.334Z,14.73
2022-10-03T17:54:39.020Z,14.70
2022-10-03T17:57:47.734Z,14.68
2022-10-03T18:01:03.788Z,14.63
2022-10-03T18:04:12.582Z,14.59
2022-10-03T18:07:18.399Z,14.42
2022-10-03T18:10:24.713Z,14.41
2022-10-03T18:13:31.016Z,14.47
2022-10-03T18:16:37.687Z,14.43
2022-10-03T18:19:54.976Z,14.42
2022-10-03T18:23:04.731Z,14.35
2022-10-03T18:26:20.004Z,14.23
2022-10-03T18:29:29.253Z,14.21
2022-10-03T18:32:38.330Z,14.23
2022-10-03T18:35:45.185Z,14.15
2022-10-03T18:38:50.659Z,14.08
2022-10-03T18:41:58.437Z,14.04
2022-10-03T18:45:02.020Z,13.97
2022-10-03T18:48:11.665Z,13.96
2022-10-03T18:51:20.079Z,13.97
2022-10-03T18:54:35.958Z,13.98
2022-10-03T18:57:44.831Z,13.99
2022-10-03T19:00:53.787Z,14.02
2022-10-03T19:04:01.820Z,13.98
2022-10-03T19:07:16.994Z,14.04
2022-10-03T19:10:31.732Z,14.05
2022-10-03T19:13:45.475Z,14.05
2022-10-03T19:17:10.534Z,14.06
2022-10-03T19:20:23.833Z,13.98
2022-10-03T19:23:30.476Z,13.97
2022-10-03T19:26:36.185Z,13.92
2022-10-03T19:29:44.412Z,13.88
2022-10-03T19:32:53.523Z,13.86
2022-10-03T19:36:04.061Z,13.66
2022-10-03T19:39:12.168Z,13.68
2022-10-03T19:42:26.010Z,13.67
2022-10-03T19:45:29.096Z,13.59
2022-10-03T19:48:35.562Z,13.65
2022-10-03T19:51:39.954Z,13.68
2022-10-03T19:54:54.554Z,13.73
2022-10-03T19:58:01.058Z,13.68
2022-10-03T20:01:08.709Z,13.69
2022-10-03T20:04:12.851Z,13.78
2022-10-03T20:07:19.980Z,13.79
2022-10-03T20:10:39.547Z,13.88
2022-10-03T20:13:48.249Z,13.83
2022-10-03T20:16:54.410Z,13.84
2022-10-03T20:20:02.400Z,13.82
2022-10-03T20:23:08.830Z,13.84
2022-10-03T20:26:19.370Z,13.87
2022-10-03T20:29:31.442Z,13.98
2022-10-03T20:32:37.368Z,14.04
2022-10-03T20:35:52.758Z,14.20
2022-10-03T20:39:16.142Z,14.29
2022-10-03T20:42:26.093Z,14.27
2022-10-03T20:45:33.356Z,14.17
2022-10-03T20:48:43.000Z,14.20
2022-10-03T20:51:57.528Z,14.12
2022-10-03T20:55:06.245Z,14.14
2022-10-03T20:58:18.698Z,14.10
2022-10-03T21:01:24.775Z,14.18
2022-10-03T21:04:32.863Z,14.18
2022-10-03T21:07:39.435Z,14.20
2022-10-03T21:10:48.359Z,14.17
2022-10-03T21:13:55.884Z,14.10
2022-10-03T21:16:59.621Z,14.15
2022-10-03T21:20:08.032Z,14.12
2022-10-03T21:23:17.327Z,14.19
2022-10-03T21:26:26.032Z,14.20
2022-10-03T21:29:30.688Z,14.19
2022-10-03T21:32:52.520Z,14.30
2022-10-03T21:35:55.665Z,14.15
2022-10-03T21:39:12.252Z,14.29
2022-10-03T21:42:24.177Z,14.29
2022-10-03T21:45:37.733Z,14.35
2022-10-03T21:48:53.960Z,14.20
2022-10-03T21:52:14.795Z,14.08
2022-10-03T21:55:51.298Z,14.11
2022-10-03T21:59:14.519Z,14.17
2022-10-03T22:02:26.851Z,14.07
2022-10-03T22:05:40.353Z,14.24
2022-10-03T22:08:47.555Z,14.11
2022-10-03T22:11:56.453Z,14.09
2022-10-03T22:15:09.034Z,14.13
2022-10-03T22:18:14.056Z,14.14
2022-10-03T22:21:26.779Z,14.16
2022-10-03T22:24:39.794Z,14.18
2022-10-03T22:27:50.165Z,14.03
2022-10-03T22:31:04.469Z,14.04
2022-10-03T22:34:26.961Z,14.21
2022-10-03T22:37:30.038Z,14.16
2022-10-03T22:40:33.929Z,14.09
2022-10-03T22:43:38.384Z,14.08
2022-10-03T22:46:47.813Z,14.24
2022-10-03T22:49:58.596Z,14.23
2022-10-03T22:53:03.726Z,14.14
2022-10-03T22:56:40.833Z,14.07
2022-10-03T22:59:48.851Z,14.05
2022-10-03T23:03:00.075Z,14.16
2022-10-03T23:06:29.758Z,14.06
2022-10-03T23:09:39.491Z,14.17
2022-10-03T23:12:45.932Z,14.09
2022-10-03T23:15:52.104Z,14.09
2022-10-03T23:19:13.157Z,13.92
2022-10-03T23:22:18.363Z,13.84
2022-10-03T23:25:27.965Z,14.05
2022-10-03T23:28:41.023Z,14.13
2022-10-03T23:31:53.453Z,14.08
2022-10-03T23:35:16.712Z,14.01
2022-10-03T23:38:59.448Z,14.15
2022-10-03T23:42:09.716Z,14.18
2022-10-03T23:45:16.580Z,14.14
2022-10-03T23:48:23.460Z,14.26
2022-10-03T23:51:32.829Z,14.27
2022-10-03T23:54:35.466Z,14.34
2022-10-03T23:57:42.927Z,14.32
